HTDO

Dodoma Airport

Airport
ICAO code
HTDO
IATA Code
DOD
Summary
ICAO Region
AFI
ICAO Territory
Location

Dodoma, Dodoma Region

Serving
Dodoma
Elevation
3637 ft
Coordinates
6° 10' 13" S , 35° 44' 58" E
KCC
BSh
Metar
Observation
HTDO 151000Z 09010KT 9999 FEW025 25/13 Q1019 NOSIG
Station
Dodoma
Date/Time
2022-08-15 10:00:00
Wind direction
90°
Wind speed
10 kts
Lowest cloud amount
few clouds
Temperature
25°C
Dew point
13°C
Humidity
47%
QNH
1019 hPa
Weather condition
n/a

Dodoma Airport is an airport serving the Tanzanian capital of Dodoma.

Climatology

Warm semi-arid climate (Köppen climate classification BSh)

Runways

Designator Length Width Surface Rops
10/28 2042 30 ASP No/No

Airport map

Aerial View

SKYbrary Partners:

Safety knowledge contributed by: